createdAt,value
2023-11-18T00:00:43.041Z,101606.41
2023-11-18T00:03:09.762Z,101625.81
2023-11-18T00:05:36.405Z,101633.94
2023-11-18T00:08:03.167Z,101627.56
2023-11-18T00:10:30.808Z,101655.09
2023-11-18T00:12:57.485Z,101651.78
2023-11-18T00:15:24.102Z,101652.34
2023-11-18T00:17:50.750Z,101659.38
2023-11-18T00:20:17.498Z,101666.47
2023-11-18T00:22:44.630Z,101657.53
2023-11-18T00:25:12.254Z,101651.50
2023-11-18T00:27:38.846Z,101624.25
2023-11-18T00:30:06.381Z,101644.41
2023-11-18T00:32:33.670Z,101662.13
2023-11-18T00:35:00.833Z,101673.13
2023-11-18T00:37:28.153Z,101669.91
2023-11-18T00:39:54.780Z,101657.19
2023-11-18T00:42:21.365Z,101683.06
2023-11-18T00:44:48.954Z,101663.22
2023-11-18T00:47:15.806Z,101658.13
2023-11-18T00:49:42.632Z,101684.69
2023-11-18T00:52:10.138Z,101689.09
2023-11-18T00:54:37.598Z,101694.22
2023-11-18T00:57:04.606Z,101692.06
2023-11-18T00:59:31.730Z,101700.75
2023-11-18T01:01:58.352Z,101704.84
2023-11-18T01:04:25.062Z,101717.00
2023-11-18T01:06:52.729Z,101715.28
2023-11-18T01:09:19.263Z,101697.41
2023-11-18T01:12:07.177Z,101726.63
2023-11-18T01:14:32.861Z,101713.22
2023-11-18T01:16:59.697Z,101729.22
2023-11-18T01:19:26.289Z,101713.22
2023-11-18T01:21:54.519Z,101731.44
2023-11-18T01:24:21.377Z,101710.63
2023-11-18T01:26:47.952Z,101724.63
2023-11-18T01:29:14.626Z,101723.03
2023-11-18T01:31:51.999Z,101744.59
2023-11-18T01:34:24.775Z,101732.22
2023-11-18T01:36:51.718Z,101700.16
2023-11-18T01:39:19.285Z,101741.09
2023-11-18T01:41:46.663Z,101758.84
2023-11-18T01:44:16.251Z,101728.47
2023-11-18T01:46:46.734Z,101711.84
2023-11-18T01:49:15.685Z,101736.75
2023-11-18T01:51:47.551Z,101735.88
2023-11-18T01:54:17.231Z,101740.13
2023-11-18T01:56:48.406Z,101746.66
2023-11-18T01:59:19.499Z,101747.72
2023-11-18T02:01:51.424Z,101759.53
2023-11-18T02:04:20.935Z,101718.69
2023-11-18T02:06:50.102Z,101769.41
2023-11-18T02:09:20.459Z,101764.53
2023-11-18T02:11:57.547Z,101733.31
2023-11-18T02:14:27.669Z,101763.25
2023-11-18T02:16:57.441Z,101756.00
2023-11-18T02:19:26.491Z,101732.25
2023-11-18T02:21:58.026Z,101762.47
2023-11-18T02:24:32.324Z,101781.31
2023-11-18T02:26:59.609Z,101737.84
2023-11-18T02:29:29.979Z,101751.72
2023-11-18T02:47:06.849Z,101772.09
2023-11-18T02:49:36.052Z,101760.81
2023-11-18T02:52:03.739Z,101771.13
2023-11-18T02:54:30.362Z,101752.53
2023-11-18T02:56:57.519Z,101787.25
2023-11-18T02:59:24.052Z,101753.19
2023-11-18T03:01:55.183Z,101780.38
2023-11-18T03:04:21.767Z,101761.34
2023-11-18T03:06:48.318Z,101777.03
2023-11-18T03:09:17.903Z,101773.25
2023-11-18T03:11:45.458Z,101763.81
2023-11-18T03:14:12.169Z,101750.97
2023-11-18T03:16:40.017Z,101769.06
2023-11-18T03:19:06.551Z,101774.28
2023-11-18T03:21:33.090Z,101774.94
2023-11-18T03:23:59.640Z,101770.09
2023-11-18T03:26:27.240Z,101782.69
2023-11-18T03:28:53.817Z,101779.19
2023-11-18T03:31:21.073Z,101790.19
2023-11-18T03:33:47.647Z,101752.53
2023-11-18T03:36:14.357Z,101768.41
2023-11-18T03:38:41.060Z,101789.50
2023-11-18T03:41:10.805Z,101766.53
2023-11-18T03:43:38.971Z,101750.69
2023-11-18T03:46:05.982Z,101779.72
2023-11-18T03:48:32.625Z,101761.56
2023-11-18T03:50:59.201Z,101767.66
2023-11-18T03:53:25.693Z,101789.78
2023-11-18T03:55:53.090Z,101794.03
2023-11-18T03:58:19.731Z,101766.81
2023-11-18T04:00:46.356Z,101768.50
2023-11-18T04:03:13.258Z,101807.19
2023-11-18T04:05:40.390Z,101798.59
2023-11-18T04:08:07.677Z,101788.66
2023-11-18T04:10:34.292Z,101792.72
2023-11-18T04:13:00.900Z,101813.34
2023-11-18T04:15:28.140Z,101791.59
2023-11-18T04:17:54.775Z,101809.44
2023-11-18T04:20:21.508Z,101797.66
2023-11-18T04:22:48.080Z,101808.47
2023-11-18T04:25:14.708Z,101808.94
2023-11-18T04:27:45.201Z,101828.56
2023-11-18T04:30:14.267Z,101825.09
2023-11-18T04:32:43.722Z,101815.41
2023-11-18T04:35:13.024Z,101825.66
2023-11-18T04:37:44.333Z,101841.41
2023-11-18T04:40:12.318Z,101814.53
2023-11-18T04:42:39.971Z,101830.97
2023-11-18T04:45:07.208Z,101822.69
2023-11-18T04:47:34.241Z,101805.31
2023-11-18T04:50:00.924Z,101823.53
2023-11-18T04:52:28.121Z,101831.34
2023-11-18T04:54:54.827Z,101822.59
2023-11-18T04:57:21.231Z,101837.13
2023-11-18T04:59:47.713Z,101822.09
2023-11-18T05:02:14.361Z,101817.06
2023-11-18T05:04:42.297Z,101841.47
2023-11-18T05:07:08.904Z,101822.16
2023-11-18T05:09:35.583Z,101824.47
2023-11-18T05:12:02.097Z,101838.06
2023-11-18T05:14:29.935Z,101818.81
2023-11-18T05:16:57.061Z,101816.34
2023-11-18T05:19:23.594Z,101812.47
2023-11-18T05:21:53.066Z,101828.84
2023-11-18T05:24:19.561Z,101820.16
2023-11-18T05:26:46.052Z,101827.06
2023-11-18T05:29:17.662Z,101838.31
2023-11-18T05:31:44.893Z,101822.88
2023-11-18T05:34:11.422Z,101826.09
2023-11-18T05:36:38.958Z,101833.03
2023-11-18T05:39:10.426Z,101840.03
2023-11-18T05:41:40.597Z,101840.75
2023-11-18T05:44:10.182Z,101845.06
2023-11-18T05:46:37.164Z,101850.91
2023-11-18T05:49:09.265Z,101830.72
2023-11-18T05:51:36.652Z,101823.47
2023-11-18T05:54:03.483Z,101820.22
2023-11-18T05:56:29.997Z,101840.81
2023-11-18T05:58:56.657Z,101815.50
2023-11-18T06:01:23.628Z,101846.50
2023-11-18T06:03:50.627Z,101842.97
2023-11-18T06:06:21.401Z,101844.34
2023-11-18T06:08:50.706Z,101836.78
2023-11-18T06:11:17.730Z,101851.25
2023-11-18T06:13:52.522Z,101829.50
2023-11-18T06:16:22.263Z,101848.63
2023-11-18T06:18:51.360Z,101818.16
2023-11-18T06:21:19.856Z,101833.00
2023-11-18T06:23:48.486Z,101850.47
2023-11-18T06:26:16.326Z,101822.09
2023-11-18T06:28:45.148Z,101857.56
2023-11-18T06:31:13.094Z,101824.50
2023-11-18T06:33:44.386Z,101841.09
2023-11-18T06:36:18.507Z,101844.34
2023-11-18T06:38:50.183Z,101870.13
2023-11-18T06:41:18.025Z,101836.00
2023-11-18T06:43:55.123Z,101866.47
2023-11-18T06:46:23.400Z,101868.41
2023-11-18T06:48:58.625Z,101855.50
2023-11-18T06:51:28.812Z,101865.00
2023-11-18T06:53:58.937Z,101868.53
2023-11-18T06:56:25.980Z,101880.84
2023-11-18T06:58:53.162Z,101870.88
2023-11-18T07:01:25.016Z,101887.53
2023-11-18T07:52:16.241Z,101953.91
2023-11-18T07:54:54.510Z,101918.06
2023-11-18T07:57:21.587Z,101936.00
2023-11-18T08:00:00.353Z,101909.34
2023-11-18T08:02:27.401Z,101935.16
2023-11-18T08:04:57.334Z,101944.41
2023-11-18T08:07:24.398Z,101915.38
2023-11-18T08:09:51.354Z,101951.56
2023-11-18T08:12:17.899Z,101957.69
2023-11-18T08:14:44.756Z,101952.44
2023-11-18T08:17:11.664Z,101941.47
2023-11-18T08:19:38.767Z,101944.63
2023-11-18T08:22:05.477Z,101941.38
2023-11-18T08:24:34.511Z,101941.16
2023-11-18T08:27:01.913Z,101943.81
2023-11-18T08:29:43.121Z,101926.38
2023-11-18T08:32:13.529Z,101943.75
2023-11-18T08:34:41.713Z,101953.09
2023-11-18T08:37:08.710Z,101952.78
2023-11-18T08:46:28.442Z,101936.06
2023-11-18T08:48:57.094Z,101943.44
2023-11-18T08:51:27.190Z,101924.28
2023-11-18T08:53:55.964Z,101943.69
2023-11-18T08:56:32.684Z,101933.69
2023-11-18T08:59:23.945Z,101940.75
2023-11-18T09:01:50.598Z,101950.75
2023-11-18T09:04:21.117Z,101958.81
2023-11-18T09:06:49.197Z,101952.19
2023-11-18T09:09:16.754Z,101952.50
2023-11-18T09:11:43.810Z,101953.97
2023-11-18T09:14:10.522Z,101966.53
2023-11-18T09:16:40.760Z,101977.13
2023-11-18T09:19:07.415Z,101964.41
2023-11-18T09:21:38.448Z,101951.03
2023-11-18T09:24:06.826Z,101947.69
2023-11-18T09:26:33.727Z,101976.38
2023-11-18T09:29:04.596Z,101985.06
2023-11-18T09:31:35.130Z,101959.72
2023-11-18T09:34:02.308Z,101945.84
2023-11-18T09:36:30.185Z,101953.47
2023-11-18T09:38:56.884Z,101953.16
2023-11-18T09:41:27.781Z,101927.38
2023-11-18T09:43:57.893Z,101942.38
2023-11-18T09:46:31.757Z,101965.41
2023-11-18T09:52:53.300Z,101969.81
2023-11-18T09:55:33.107Z,101960.41
2023-11-18T09:58:14.352Z,101948.94
2023-11-18T10:00:43.072Z,101966.13
2023-11-18T10:03:11.391Z,101960.91
2023-11-18T10:05:41.567Z,101967.59
2023-11-18T10:08:08.159Z,101964.84
2023-11-18T10:10:38.681Z,101977.91
2023-11-18T10:13:19.996Z,101958.34
2023-11-18T10:15:51.851Z,101973.78
2023-11-18T10:18:52.207Z,101940.03
2023-11-18T10:21:58.908Z,101963.75
2023-11-18T10:24:27.197Z,101946.50
2023-11-18T10:26:57.777Z,101954.44
2023-11-18T10:29:30.489Z,101960.59
2023-11-18T10:32:09.404Z,101968.00
2023-11-18T10:34:37.357Z,101956.97
2023-11-18T10:37:09.361Z,101953.25
2023-11-18T10:39:36.659Z,101956.25
2023-11-18T10:42:04.349Z,101947.38
2023-11-18T10:44:31.114Z,101958.81
2023-11-18T10:47:00.040Z,101964.66
2023-11-18T10:49:38.395Z,101965.94
2023-11-18T10:52:09.334Z,101949.28
2023-11-18T10:54:35.972Z,101975.09
2023-11-18T10:57:08.753Z,101966.28
2023-11-18T10:59:35.726Z,101971.84
2023-11-18T11:02:18.590Z,101971.59
2023-11-18T11:04:46.195Z,101970.31
2023-11-18T11:07:14.346Z,101985.09
2023-11-18T11:09:43.306Z,101979.19
2023-11-18T11:12:16.295Z,101962.22
2023-11-18T11:14:51.778Z,101987.50
2023-11-18T11:17:31.026Z,101979.59
2023-11-18T11:20:19.069Z,101987.69
2023-11-18T11:23:21.061Z,101967.31
2023-11-18T11:26:01.959Z,101951.22
2023-11-18T11:28:57.113Z,101949.19
2023-11-18T11:31:37.631Z,101967.53
2023-11-18T11:34:26.637Z,101936.34
2023-11-18T11:37:00.647Z,101926.78
2023-11-18T11:39:31.887Z,101936.28
2023-11-18T11:42:04.067Z,101945.56
2023-11-18T11:44:32.358Z,101923.81
2023-11-18T11:47:02.268Z,101950.44
2023-11-18T11:49:48.375Z,101940.44
2023-11-18T11:52:29.358Z,101925.66
2023-11-18T11:55:06.551Z,101944.00
2023-11-18T11:57:37.909Z,101923.88
2023-11-18T12:00:16.620Z,101926.41
2023-11-18T12:02:57.592Z,101930.66
2023-11-18T12:05:27.402Z,101925.38
2023-11-18T12:07:56.273Z,101920.06
2023-11-18T12:10:30.444Z,101918.63
2023-11-18T12:13:19.845Z,101918.75
2023-11-18T12:15:58.822Z,101931.53
2023-11-18T12:18:26.038Z,101899.09
2023-11-18T12:20:57.261Z,101891.94
2023-11-18T12:23:26.708Z,101879.16
2023-11-18T12:25:58.112Z,101899.72
2023-11-18T12:28:32.268Z,101903.50
2023-11-18T12:30:59.289Z,101908.44
2023-11-18T12:33:32.028Z,101882.66
2023-11-18T12:36:10.446Z,101868.66
2023-11-18T12:39:15.046Z,101896.75
2023-11-18T12:41:42.234Z,101895.88
2023-11-18T12:44:36.530Z,101897.50
2023-11-18T12:47:16.509Z,101892.34
2023-11-18T12:49:43.801Z,101895.63
2023-11-18T12:52:14.088Z,101897.00
2023-11-18T12:54:44.691Z,101906.59
2023-11-18T12:57:15.303Z,101899.13
2023-11-18T12:59:43.135Z,101893.53
2023-11-18T13:02:14.502Z,101884.16
2023-11-18T13:04:41.904Z,101891.38
2023-11-18T13:07:12.552Z,101880.84
2023-11-18T13:09:40.036Z,101877.91
2023-11-18T13:12:10.026Z,101869.75
2023-11-18T13:14:38.120Z,101868.28
2023-11-18T13:17:09.852Z,101874.53
2023-11-18T13:19:36.684Z,101870.03
2023-11-18T13:22:09.114Z,101882.19
2023-11-18T13:24:40.668Z,101849.44
2023-11-18T13:27:10.181Z,101878.38
2023-11-18T13:29:42.282Z,101857.50
2023-11-18T13:32:11.790Z,101846.41
2023-11-18T13:34:43.569Z,101868.06
2023-11-18T13:37:11.927Z,101882.41
2023-11-18T13:39:39.852Z,101870.59
2023-11-18T13:42:27.382Z,101871.09
2023-11-18T13:44:54.536Z,101849.16
2023-11-18T13:47:22.154Z,101840.09
2023-11-18T13:49:51.956Z,101855.75
2023-11-18T13:52:20.468Z,101859.63
2023-11-18T13:54:48.752Z,101832.06
2023-11-18T13:57:15.921Z,101830.66
2023-11-18T13:59:45.723Z,101863.22
2023-11-18T14:02:13.217Z,101858.53
2023-11-18T14:04:41.126Z,101830.06
2023-11-18T14:07:07.759Z,101861.75
2023-11-18T14:09:37.922Z,101849.31
2023-11-18T14:12:07.611Z,101812.25
2023-11-18T14:14:34.419Z,101850.44
2023-11-18T14:17:01.203Z,101852.13
2023-11-18T14:19:28.915Z,101852.31
2023-11-18T14:21:57.076Z,101856.22
2023-11-18T14:24:24.362Z,101853.03
2023-11-18T14:26:51.765Z,101838.16
2023-11-18T14:29:19.791Z,101837.56
2023-11-18T14:31:47.710Z,101857.78
2023-11-18T14:34:14.932Z,101835.09
2023-11-18T14:36:42.398Z,101843.25
2023-11-18T14:39:14.712Z,101832.00
2023-11-18T14:41:41.913Z,101840.09
2023-11-18T14:44:10.777Z,101834.25
2023-11-18T14:46:42.234Z,101826.31
2023-11-18T14:49:09.091Z,101822.88
2023-11-18T14:51:36.980Z,101835.50
2023-11-18T14:54:03.638Z,101821.31
2023-11-18T14:56:30.685Z,101807.38
2023-11-18T14:58:57.326Z,101813.06
2023-11-18T15:01:23.965Z,101808.47
2023-11-18T15:03:50.645Z,101805.22
2023-11-18T15:06:25.187Z,101816.09
2023-11-18T15:08:51.780Z,101793.69
2023-11-18T15:11:24.641Z,101806.16
2023-11-18T15:13:54.492Z,101810.06
2023-11-18T15:16:21.486Z,101788.59
2023-11-18T15:18:48.943Z,101798.97
2023-11-18T15:21:16.604Z,101775.63
2023-11-18T15:23:43.716Z,101784.75
2023-11-18T15:26:11.073Z,101781.22
2023-11-18T15:28:38.141Z,101801.06
2023-11-18T15:31:05.470Z,101787.06
2023-11-18T15:33:32.863Z,101798.31
2023-11-18T15:35:59.957Z,101802.56
2023-11-18T15:38:26.844Z,101808.63
2023-11-18T15:40:53.474Z,101793.69
2023-11-18T15:43:20.165Z,101786.91
2023-11-18T15:45:46.960Z,101781.63
2023-11-18T15:48:15.651Z,101765.13
2023-11-18T15:50:42.982Z,101739.34
2023-11-18T15:53:09.993Z,101756.63
2023-11-18T15:55:39.554Z,101765.97
2023-11-18T15:58:06.214Z,101748.47
2023-11-18T16:00:33.275Z,101772.72
2023-11-18T16:03:02.794Z,101758.13
2023-11-18T16:05:35.426Z,101764.81
2023-11-18T16:08:03.673Z,101728.97
2023-11-18T16:14:10.882Z,101741.81
2023-11-18T16:16:38.688Z,101698.44
2023-11-18T16:19:05.260Z,101709.53
2023-11-18T16:21:32.847Z,101717.88
2023-11-18T16:23:59.401Z,101703.25
2023-11-18T16:26:25.953Z,101706.59
2023-11-18T16:28:52.596Z,101728.06
2023-11-18T16:31:19.277Z,101720.00
2023-11-18T16:33:46.691Z,101723.41
2023-11-18T16:36:23.191Z,101674.81
2023-11-18T16:38:49.990Z,101697.22
2023-11-18T16:41:16.602Z,101713.75
2023-11-18T16:43:43.127Z,101722.44
2023-11-18T16:46:10.305Z,101690.63
2023-11-18T16:48:36.907Z,101689.66
2023-11-18T16:51:03.589Z,101707.53
2023-11-18T16:53:30.241Z,101682.78
2023-11-18T16:55:56.710Z,101693.31
2023-11-18T16:58:23.280Z,101659.06
2023-11-18T17:00:52.466Z,101674.44
2023-11-18T17:03:22.172Z,101674.41
2023-11-18T17:05:48.935Z,101648.56
2023-11-18T17:08:15.697Z,101677.50
2023-11-18T17:10:43.001Z,101668.56
2023-11-18T17:13:09.756Z,101645.72
2023-11-18T17:15:36.401Z,101663.63
2023-11-18T17:18:04.190Z,101628.69
2023-11-18T17:20:43.870Z,101635.16
2023-11-18T17:23:10.612Z,101657.66
2023-11-18T17:25:37.997Z,101657.28
2023-11-18T17:28:09.322Z,101607.47
2023-11-18T17:30:38.372Z,101646.81
2023-11-18T17:33:05.141Z,101649.75
2023-11-18T17:35:31.804Z,101640.75
2023-11-18T17:37:58.595Z,101610.16
2023-11-18T17:40:28.424Z,101589.28
2023-11-18T17:42:55.657Z,101633.91
2023-11-18T17:45:22.996Z,101632.53
2023-11-18T17:47:49.838Z,101619.97
2023-11-18T17:50:18.755Z,101591.50
2023-11-18T17:52:48.375Z,101626.25
2023-11-18T17:55:28.990Z,101601.88
2023-11-18T17:57:58.907Z,101567.66
2023-11-18T18:00:28.537Z,101571.78
2023-11-18T18:02:56.570Z,101599.59
2023-11-18T18:05:26.237Z,101606.53
2023-11-18T18:08:11.154Z,101581.00
2023-11-18T18:10:38.331Z,101579.28
2023-11-18T18:13:38.985Z,101598.69
2023-11-18T18:16:06.325Z,101583.81
2023-11-18T18:18:33.189Z,101563.66
2023-11-18T18:20:59.883Z,101578.44
2023-11-18T18:23:26.457Z,101606.53
2023-11-18T18:25:53.217Z,101597.06
2023-11-18T18:28:19.652Z,101633.06
2023-11-18T18:30:46.194Z,101588.97
2023-11-18T18:33:12.967Z,101589.47
2023-11-18T18:35:42.694Z,101536.91
2023-11-18T18:38:12.177Z,101554.56
2023-11-18T18:40:38.804Z,101564.75
2023-11-18T18:43:07.585Z,101549.50
2023-11-18T18:45:34.544Z,101561.31
2023-11-18T18:48:01.161Z,101569.31
2023-11-18T18:50:27.817Z,101585.91
2023-11-18T18:52:54.387Z,101574.28
2023-11-18T18:55:21.312Z,101577.44
2023-11-18T18:57:47.973Z,101597.28
2023-11-18T19:00:14.686Z,101589.16
2023-11-18T19:02:41.618Z,101557.44
2023-11-18T19:05:12.562Z,101550.16
2023-11-18T19:07:39.208Z,101539.53
2023-11-18T19:10:09.286Z,101520.44
2023-11-18T19:12:35.879Z,101538.03
2023-11-18T19:15:06.019Z,101517.88
2023-11-18T19:17:36.133Z,101544.91
2023-11-18T22:56:48.838Z,101138.84
2023-11-18T22:59:18.324Z,101177.78
2023-11-18T23:01:52.418Z,101120.22
2023-11-18T23:04:19.448Z,101137.00
2023-11-18T23:06:55.852Z,101133.69
2023-11-18T23:09:23.297Z,101111.38
2023-11-18T23:11:49.991Z,101110.41
2023-11-18T23:14:16.678Z,101116.94
2023-11-18T23:16:44.471Z,101104.38
2023-11-18T23:19:12.005Z,101078.03
2023-11-18T23:21:39.424Z,101084.34
2023-11-18T23:24:07.033Z,101080.69
2023-11-18T23:26:33.608Z,101082.00
2023-11-18T23:29:00.173Z,101080.94
2023-11-18T23:31:26.878Z,101082.75
2023-11-18T23:33:53.658Z,101065.94
2023-11-18T23:36:20.432Z,101047.59
2023-11-18T23:38:47.475Z,101063.81
2023-11-18T23:41:15.166Z,101048.19
2023-11-18T23:43:41.945Z,101038.66
2023-11-18T23:46:09.075Z,101048.56
2023-11-18T23:48:38.080Z,101032.59
2023-11-18T23:51:06.219Z,101036.97
2023-11-18T23:53:33.836Z,101012.31
2023-11-18T23:56:00.603Z,100993.06
2023-11-18T23:58:27.197Z,101003.66
